createdAt,value
2017-07-18T00:00:14.585Z,19.55
2017-07-18T00:02:42.490Z,19.75
2017-07-18T00:05:10.265Z,19.88
2017-07-18T00:07:37.920Z,19.70
2017-07-18T00:10:05.718Z,19.68
2017-07-18T00:12:33.826Z,19.73
2017-07-18T00:15:01.991Z,19.80
2017-07-18T00:17:29.854Z,19.59
2017-07-18T00:19:57.468Z,19.50
2017-07-18T00:22:25.348Z,19.36
2017-07-18T00:24:53.503Z,19.32
2017-07-18T00:27:21.095Z,19.30
2017-07-18T00:29:49.427Z,19.08
2017-07-18T00:32:17.027Z,19.02
2017-07-18T00:34:44.640Z,19.26
2017-07-18T00:37:12.247Z,19.35
2017-07-18T00:39:39.859Z,19.19
2017-07-18T00:42:07.491Z,19.23
2017-07-18T00:44:35.178Z,19.46
2017-07-18T00:47:03.680Z,19.60
2017-07-18T00:49:31.278Z,19.83
2017-07-18T00:51:58.901Z,19.95
2017-07-18T00:54:26.548Z,20.10
2017-07-18T00:56:54.737Z,20.19
2017-07-18T00:59:22.496Z,20.27
2017-07-18T01:01:50.959Z,20.13
2017-07-18T01:04:19.352Z,20.20
2017-07-18T01:06:46.973Z,20.14
2017-07-18T01:09:14.787Z,20.15
2017-07-18T01:11:42.567Z,20.08
2017-07-18T01:14:10.366Z,19.85
2017-07-18T01:16:37.995Z,19.67
2017-07-18T01:19:05.743Z,19.83
2017-07-18T01:21:33.557Z,20.02
2017-07-18T01:24:01.317Z,19.99
2017-07-18T01:26:29.834Z,20.01
2017-07-18T01:28:57.545Z,19.97
2017-07-18T01:31:25.206Z,20.07
2017-07-18T01:33:53.320Z,20.09
2017-07-18T01:36:21.759Z,20.18
2017-07-18T01:38:51.395Z,20.17
2017-07-18T01:41:19.265Z,20.17
2017-07-18T01:43:46.863Z,20.28
2017-07-18T01:46:14.557Z,20.31
2017-07-18T01:48:42.343Z,20.34
2017-07-18T01:51:09.981Z,20.38
2017-07-18T01:53:37.661Z,20.48
2017-07-18T01:56:05.276Z,20.43
2017-07-18T01:58:33.728Z,20.37
2017-07-18T02:01:01.528Z,20.23
2017-07-18T02:03:29.177Z,20.29
2017-07-18T02:05:57.671Z,20.29
2017-07-18T02:08:25.307Z,20.37
2017-07-18T02:10:52.946Z,20.42
2017-07-18T02:13:20.576Z,20.34
2017-07-18T02:15:48.362Z,20.30
2017-07-18T02:18:16.197Z,20.48
2017-07-18T02:20:43.764Z,20.38
2017-07-18T02:23:11.431Z,20.43
2017-07-18T02:25:39.043Z,20.45
2017-07-18T02:28:06.680Z,20.46
2017-07-18T02:30:35.158Z,20.50
2017-07-18T02:33:02.748Z,20.49
2017-07-18T02:35:30.420Z,20.55
2017-07-18T02:37:58.126Z,20.45
2017-07-18T02:40:25.784Z,20.36
2017-07-18T02:42:53.389Z,20.52
2017-07-18T02:45:21.323Z,20.48
2017-07-18T02:47:49.524Z,20.50
2017-07-18T02:50:17.445Z,20.48
2017-07-18T02:52:45.119Z,20.45
2017-07-18T02:55:12.734Z,20.39
2017-07-18T02:57:40.311Z,20.45
2017-07-18T03:00:08.026Z,20.48
2017-07-18T03:02:36.346Z,20.54
2017-07-18T03:05:04.031Z,20.70
2017-07-18T03:07:32.018Z,20.74
2017-07-18T03:09:59.839Z,20.62
2017-07-18T03:12:27.519Z,20.54
2017-07-18T03:14:55.945Z,20.67
2017-07-18T03:17:23.835Z,20.59
2017-07-18T03:19:51.564Z,20.46
2017-07-18T03:22:19.695Z,20.21
2017-07-18T03:24:48.028Z,20.31
2017-07-18T03:27:15.728Z,20.44
2017-07-18T03:29:43.449Z,20.53
2017-07-18T03:32:11.165Z,20.47
2017-07-18T03:34:39.124Z,20.32
2017-07-18T03:37:07.257Z,20.28
2017-07-18T03:39:35.088Z,20.17
2017-07-18T03:42:02.763Z,20.26
2017-07-18T03:44:30.956Z,20.31
2017-07-18T03:46:58.613Z,20.30
2017-07-18T03:49:26.239Z,20.29
2017-07-18T03:51:53.983Z,20.39
2017-07-18T03:54:21.676Z,20.40
2017-07-18T03:56:49.374Z,20.52
2017-07-18T03:59:17.032Z,20.43
2017-07-18T04:01:44.708Z,20.43
2017-07-18T04:04:12.834Z,20.47
2017-07-18T04:06:40.439Z,20.50
2017-07-18T04:09:08.088Z,20.63
2017-07-18T04:11:35.748Z,20.72
2017-07-18T04:14:04.127Z,20.76
2017-07-18T04:16:31.746Z,20.75
2017-07-18T04:18:59.608Z,20.97
2017-07-18T04:21:28.189Z,20.91
2017-07-18T04:23:55.814Z,20.91
2017-07-18T04:26:23.513Z,20.95
2017-07-18T04:28:51.154Z,20.94
2017-07-18T04:31:18.941Z,21.21
2017-07-18T04:33:46.624Z,21.96
2017-07-18T04:36:14.222Z,22.34
2017-07-18T04:38:41.859Z,22.67
2017-07-18T04:41:11.326Z,22.82
2017-07-18T04:43:39.162Z,22.91
2017-07-18T04:46:07.720Z,23.21
2017-07-18T04:48:35.598Z,23.46
2017-07-18T04:51:03.997Z,23.71
2017-07-18T04:53:31.574Z,23.48
2017-07-18T04:55:59.225Z,23.46
2017-07-18T04:58:28.032Z,22.87
2017-07-18T05:00:56.376Z,22.54
2017-07-18T05:03:24.012Z,22.28
2017-07-18T05:05:51.630Z,22.21
2017-07-18T05:08:19.272Z,22.05
2017-07-18T05:10:46.885Z,22.01
2017-07-18T05:13:14.469Z,22.08
2017-07-18T05:15:42.042Z,22.14
2017-07-18T05:18:09.683Z,22.23
2017-07-18T05:20:37.307Z,22.31
2017-07-18T05:23:04.976Z,22.22
2017-07-18T05:25:32.754Z,22.29
2017-07-18T05:28:00.522Z,22.13
2017-07-18T05:30:28.200Z,21.79
2017-07-18T05:32:55.819Z,21.72
2017-07-18T05:35:23.404Z,21.60
2017-07-18T05:37:51.188Z,21.57
2017-07-18T05:40:18.786Z,21.68
2017-07-18T05:42:46.391Z,21.66
2017-07-18T05:45:13.994Z,21.45
2017-07-18T05:47:41.770Z,21.27
2017-07-18T05:50:09.368Z,21.38
2017-07-18T05:52:37.025Z,21.40
2017-07-18T05:55:04.780Z,21.67
2017-07-18T05:57:32.436Z,21.94
2017-07-18T06:00:00.500Z,22.28
2017-07-18T06:02:28.314Z,22.46
2017-07-18T06:04:55.904Z,22.69
2017-07-18T06:07:23.738Z,22.78
2017-07-18T06:09:51.314Z,22.82
2017-07-18T06:12:18.881Z,22.87
2017-07-18T06:14:46.459Z,23.19
2017-07-18T06:17:14.047Z,23.29
2017-07-18T06:19:41.662Z,23.50
2017-07-18T06:22:09.238Z,23.77
2017-07-18T06:24:36.806Z,23.48
2017-07-18T06:27:04.380Z,23.34
2017-07-18T06:29:31.937Z,23.34
2017-07-18T06:31:59.549Z,23.01
2017-07-18T06:34:27.363Z,22.76
2017-07-18T06:36:55.116Z,22.77
2017-07-18T06:39:22.706Z,23.17
2017-07-18T06:41:50.271Z,23.27
2017-07-18T06:44:17.920Z,23.43
2017-07-18T06:46:45.556Z,23.62
2017-07-18T06:49:13.160Z,24.01
2017-07-18T06:51:40.794Z,23.94
2017-07-18T06:54:08.367Z,23.95
2017-07-18T06:56:35.975Z,23.96
2017-07-18T06:59:03.620Z,23.55
2017-07-18T07:01:31.227Z,23.80
2017-07-18T07:03:58.780Z,23.49
2017-07-18T07:06:26.376Z,23.42
2017-07-18T07:08:53.943Z,23.56
2017-07-18T07:11:21.480Z,23.94
2017-07-18T07:13:49.163Z,23.63
2017-07-18T07:16:16.786Z,23.50
2017-07-18T07:18:44.371Z,23.31
2017-07-18T07:21:11.941Z,23.10
2017-07-18T07:23:39.706Z,23.39
2017-07-18T07:26:07.739Z,23.67
2017-07-18T07:28:35.347Z,23.85
2017-07-18T07:31:03.007Z,23.99
2017-07-18T07:33:30.621Z,24.05
2017-07-18T07:35:58.461Z,23.96
2017-07-18T07:38:26.066Z,23.57
2017-07-18T07:40:53.631Z,23.72
2017-07-18T07:43:21.193Z,23.63
2017-07-18T07:45:49.069Z,23.82
2017-07-18T07:48:16.656Z,24.14
2017-07-18T07:50:44.256Z,24.70
2017-07-18T07:53:12.086Z,24.59
2017-07-18T07:55:39.832Z,24.50
2017-07-18T07:58:07.457Z,24.04
2017-07-18T08:00:35.354Z,23.79
2017-07-18T08:03:02.957Z,24.00
2017-07-18T08:05:30.556Z,23.90
2017-07-18T08:07:58.221Z,23.34
2017-07-18T08:10:26.022Z,23.11
2017-07-18T08:12:53.786Z,23.06
2017-07-18T08:15:21.403Z,23.15
2017-07-18T08:17:48.955Z,22.98
2017-07-18T08:20:16.679Z,22.98
2017-07-18T08:22:44.474Z,23.03
2017-07-18T08:25:12.682Z,23.33
2017-07-18T08:27:40.305Z,23.24
2017-07-18T08:30:08.600Z,23.13
2017-07-18T08:32:36.250Z,23.08
2017-07-18T08:35:03.940Z,22.81
2017-07-18T08:37:31.587Z,22.67
2017-07-18T08:39:59.184Z,22.75
2017-07-18T08:42:26.715Z,22.72
2017-07-18T08:44:54.301Z,22.52
2017-07-18T08:47:21.956Z,22.59
2017-07-18T08:49:49.497Z,22.64
2017-07-18T08:52:17.322Z,22.92
2017-07-18T08:54:44.870Z,22.94
2017-07-18T08:57:12.612Z,23.22
2017-07-18T08:59:40.827Z,23.49
2017-07-18T09:02:08.431Z,23.58
2017-07-18T09:04:36.189Z,23.40
2017-07-18T09:07:05.763Z,23.50
2017-07-18T09:09:34.096Z,23.51
2017-07-18T09:12:01.957Z,23.13
2017-07-18T09:14:29.539Z,23.45
2017-07-18T09:16:57.175Z,23.48
2017-07-18T09:19:24.931Z,23.82
2017-07-18T09:21:52.514Z,24.10
2017-07-18T09:24:20.370Z,23.69
2017-07-18T09:26:47.931Z,23.52
2017-07-18T09:29:15.493Z,23.60
2017-07-18T09:31:43.131Z,23.63
2017-07-18T09:34:10.686Z,23.80
2017-07-18T09:36:38.246Z,24.13
2017-07-18T09:39:05.800Z,24.12
2017-07-18T09:41:33.825Z,24.14
2017-07-18T09:44:01.413Z,24.06
2017-07-18T09:46:29.094Z,24.27
2017-07-18T09:48:56.722Z,24.47
2017-07-18T09:51:24.274Z,24.78
2017-07-18T09:53:51.868Z,24.97
2017-07-18T09:56:19.468Z,24.80
2017-07-18T09:58:47.062Z,24.73
2017-07-18T10:01:14.922Z,24.84
2017-07-18T10:03:42.623Z,24.99
2017-07-18T10:06:10.313Z,25.22
2017-07-18T10:08:37.936Z,25.17
2017-07-18T10:11:05.545Z,25.69
2017-07-18T10:13:33.116Z,25.74
2017-07-18T10:16:00.751Z,25.79
2017-07-18T10:18:28.311Z,25.93
2017-07-18T10:20:55.898Z,26.27
2017-07-18T10:23:23.688Z,26.31
2017-07-18T10:25:51.262Z,26.69
2017-07-18T10:28:19.442Z,26.67
2017-07-18T10:30:47.160Z,26.71
2017-07-18T10:33:14.745Z,26.74
2017-07-18T10:35:42.310Z,26.40
2017-07-18T10:38:09.896Z,26.82
2017-07-18T10:40:37.503Z,27.04
2017-07-18T10:43:05.114Z,27.35
2017-07-18T10:45:32.800Z,27.60
2017-07-18T10:48:00.345Z,27.95
2017-07-18T10:50:28.028Z,28.18
2017-07-18T10:52:55.661Z,28.30
2017-07-18T10:55:23.315Z,27.96
2017-07-18T10:57:50.902Z,27.95
2017-07-18T11:00:18.591Z,27.85
2017-07-18T11:02:46.351Z,27.92
2017-07-18T11:05:13.988Z,28.11
2017-07-18T11:07:41.605Z,28.20
2017-07-18T11:10:09.163Z,28.53
2017-07-18T11:12:36.791Z,28.16
2017-07-18T11:15:04.675Z,28.26
2017-07-18T11:17:32.281Z,27.89
2017-07-18T11:19:59.898Z,27.60
2017-07-18T11:22:28.516Z,27.60
2017-07-18T11:24:56.079Z,27.57
2017-07-18T11:27:23.753Z,27.40
2017-07-18T11:29:51.371Z,27.67
2017-07-18T11:32:18.966Z,27.93
2017-07-18T11:34:46.913Z,27.85
2017-07-18T11:37:14.479Z,27.94
2017-07-18T11:39:42.121Z,27.80
2017-07-18T11:42:10.493Z,27.67
2017-07-18T11:44:38.059Z,27.93
2017-07-18T11:47:06.031Z,28.25
2017-07-18T11:49:33.720Z,28.24
2017-07-18T11:52:01.312Z,28.43
2017-07-18T11:54:28.929Z,28.53
2017-07-18T11:56:56.674Z,28.50
2017-07-18T11:59:25.131Z,28.58
2017-07-18T12:01:52.805Z,28.81
2017-07-18T12:04:20.413Z,29.05
2017-07-18T12:06:48.170Z,28.84
2017-07-18T12:09:15.846Z,28.68
2017-07-18T12:11:44.685Z,28.87
2017-07-18T12:14:15.196Z,28.69
2017-07-18T12:16:42.795Z,27.98
2017-07-18T12:19:11.331Z,27.73
2017-07-18T12:21:38.944Z,27.77
2017-07-18T12:24:06.725Z,27.59
2017-07-18T12:26:34.328Z,27.78
2017-07-18T12:29:01.964Z,27.88
2017-07-18T12:31:29.561Z,27.89
2017-07-18T12:33:57.132Z,27.57
2017-07-18T12:36:24.750Z,27.85
2017-07-18T12:38:52.415Z,27.82
2017-07-18T12:41:20.120Z,27.72
2017-07-18T12:43:47.749Z,27.94
2017-07-18T12:46:15.439Z,28.21
2017-07-18T12:48:43.358Z,28.32
2017-07-18T12:51:12.061Z,28.00
2017-07-18T12:53:39.635Z,27.78
2017-07-18T12:56:07.263Z,27.43
2017-07-18T12:58:34.999Z,27.15
2017-07-18T13:01:02.730Z,27.46
2017-07-18T13:03:30.344Z,27.72
2017-07-18T13:05:57.946Z,27.96
2017-07-18T13:08:25.577Z,28.08
2017-07-18T13:10:53.110Z,28.25
2017-07-18T13:13:20.657Z,27.85
2017-07-18T13:15:48.253Z,27.76
2017-07-18T13:18:15.890Z,27.73
2017-07-18T13:20:43.476Z,27.94
2017-07-18T13:23:11.104Z,27.94
2017-07-18T13:25:38.717Z,27.94
2017-07-18T13:28:06.241Z,27.81
2017-07-18T13:30:33.887Z,27.81
2017-07-18T13:33:02.015Z,27.62
2017-07-18T13:35:29.611Z,27.33
2017-07-18T13:37:57.242Z,27.57
2017-07-18T13:40:24.921Z,27.83
2017-07-18T13:42:53.171Z,28.02
2017-07-18T13:45:20.870Z,27.78
2017-07-18T13:47:49.021Z,27.21
2017-07-18T13:50:16.687Z,27.17
2017-07-18T13:52:44.315Z,27.36
2017-07-18T13:55:12.687Z,27.43
2017-07-18T13:57:40.237Z,27.31
2017-07-18T14:00:08.694Z,27.14
2017-07-18T14:02:36.659Z,27.22
2017-07-18T14:05:04.403Z,27.33
2017-07-18T14:07:31.977Z,27.40
2017-07-18T14:09:59.601Z,27.39
2017-07-18T14:12:27.185Z,27.41
2017-07-18T14:14:54.834Z,27.40
2017-07-18T14:17:22.618Z,27.39
2017-07-18T14:19:50.394Z,27.34
2017-07-18T14:22:18.039Z,27.11
2017-07-18T14:24:45.701Z,27.24
2017-07-18T14:27:13.258Z,27.42
2017-07-18T14:29:41.657Z,27.29
2017-07-18T14:32:10.124Z,27.00
2017-07-18T14:34:37.653Z,26.94
2017-07-18T14:37:05.393Z,27.12
2017-07-18T14:39:33.005Z,27.18
2017-07-18T14:42:00.552Z,27.12
2017-07-18T14:44:28.218Z,27.11
2017-07-18T14:46:56.810Z,27.15
2017-07-18T14:49:24.353Z,27.07
2017-07-18T14:51:51.981Z,27.00
2017-07-18T14:54:19.642Z,26.79
2017-07-18T14:56:47.245Z,26.91
2017-07-18T14:59:15.071Z,26.49
2017-07-18T15:01:47.473Z,26.65
2017-07-18T15:04:16.121Z,26.72
2017-07-18T15:06:44.007Z,26.84
2017-07-18T15:09:17.371Z,26.74
2017-07-18T15:11:45.216Z,26.65
2017-07-18T15:14:14.396Z,26.45
2017-07-18T15:16:55.630Z,26.43
2017-07-18T15:19:27.068Z,26.49
2017-07-18T15:21:54.943Z,26.69
2017-07-18T15:24:22.788Z,26.79
2017-07-18T15:26:50.652Z,26.71
2017-07-18T15:32:40.900Z,26.57
2017-07-18T15:35:08.812Z,26.37
2017-07-18T15:37:42.565Z,26.42
2017-07-18T15:40:12.328Z,26.54
2017-07-18T15:42:44.672Z,26.35
2017-07-18T15:45:22.656Z,26.45
2017-07-18T15:47:54.558Z,26.37
2017-07-18T15:50:23.841Z,26.32
2017-07-18T15:52:51.526Z,26.43
2017-07-18T15:55:19.374Z,26.40
2017-07-18T15:57:47.113Z,26.47
2017-07-18T16:00:16.284Z,26.45
2017-07-18T16:02:44.714Z,26.37
2017-07-18T16:05:15.644Z,26.37
2017-07-18T16:07:46.525Z,26.33
2017-07-18T16:10:14.519Z,26.25
2017-07-18T16:12:44.866Z,26.13
2017-07-18T16:15:12.633Z,26.18
2017-07-18T16:17:40.426Z,26.12
2017-07-18T16:20:11.074Z,26.24
2017-07-18T16:22:44.001Z,26.03
2017-07-18T16:28:39.484Z,25.99
2017-07-18T16:31:08.120Z,26.03
2017-07-18T16:33:36.576Z,25.93
2017-07-18T16:36:07.075Z,25.76
2017-07-18T16:38:35.795Z,25.88
2017-07-18T16:41:14.961Z,25.92
2017-07-18T16:44:12.093Z,25.89
2017-07-18T16:50:43.020Z,25.83
2017-07-18T16:53:14.527Z,25.88
2017-07-18T16:55:44.260Z,25.72
2017-07-18T16:58:12.004Z,25.60
2017-07-18T17:00:39.720Z,25.60
2017-07-18T17:03:07.810Z,25.58
2017-07-18T17:05:36.446Z,25.60
2017-07-18T17:08:04.137Z,25.49
2017-07-18T17:10:31.777Z,25.32
2017-07-18T17:12:59.446Z,25.20
2017-07-18T17:15:27.121Z,25.07
2017-07-18T17:17:54.853Z,24.95
2017-07-18T17:20:22.496Z,24.96
2017-07-18T17:22:50.185Z,24.68
2017-07-18T17:25:17.898Z,24.43
2017-07-18T17:27:48.239Z,24.52
2017-07-18T17:30:15.989Z,24.33
2017-07-18T17:32:43.662Z,24.18
2017-07-18T17:35:11.423Z,24.11
2017-07-18T17:37:43.904Z,24.06
2017-07-18T17:40:11.654Z,23.90
2017-07-18T17:45:14.805Z,23.87
2017-07-18T17:47:47.020Z,23.76
2017-07-18T17:50:15.374Z,23.72
2017-07-18T17:52:45.889Z,23.67
2017-07-18T17:55:14.001Z,23.67
2017-07-18T18:01:11.673Z,23.32
2017-07-18T18:20:58.502Z,22.98
2017-07-18T18:40:25.049Z,22.76
2017-07-18T18:46:39.983Z,22.61
2017-07-18T18:49:33.251Z,22.58
2017-07-18T18:52:08.933Z,22.61
2017-07-18T18:54:55.072Z,22.64
2017-07-18T18:57:25.639Z,22.53
2017-07-18T18:59:53.584Z,22.64
2017-07-18T19:02:22.925Z,22.59
2017-07-18T19:04:50.836Z,22.62
2017-07-18T19:07:24.763Z,22.50
2017-07-18T19:09:53.886Z,22.41
2017-07-18T19:12:22.615Z,22.43
2017-07-18T19:14:54.144Z,22.37
2017-07-18T19:17:23.695Z,22.31
2017-07-18T19:19:54.141Z,22.30
2017-07-18T19:22:22.934Z,22.06
2017-07-18T19:24:51.820Z,21.95
2017-07-18T19:27:19.572Z,22.09
2017-07-18T19:29:47.376Z,22.10
2017-07-18T19:32:15.172Z,22.12
2017-07-18T19:34:44.768Z,22.16
2017-07-18T19:37:12.525Z,22.12
2017-07-18T19:39:41.021Z,21.75
2017-07-18T19:42:08.793Z,21.77
2017-07-18T19:44:40.030Z,21.75
2017-07-18T19:47:07.740Z,22.01
2017-07-18T19:49:35.702Z,22.06
2017-07-18T19:52:04.092Z,22.07
2017-07-18T19:54:31.836Z,22.08
2017-07-18T19:56:59.833Z,22.08
2017-07-18T19:59:27.613Z,22.01
2017-07-18T20:01:55.356Z,21.99
2017-07-18T20:04:27.829Z,21.96
2017-07-18T20:06:55.564Z,22.09
2017-07-18T20:09:23.202Z,21.87
2017-07-18T20:11:50.951Z,21.72
2017-07-18T20:14:18.660Z,21.67
2017-07-18T20:16:46.384Z,21.60
2017-07-18T20:19:14.064Z,21.65
2017-07-18T20:21:42.495Z,21.67
2017-07-18T20:24:10.322Z,21.76
2017-07-18T20:26:38.080Z,21.70
2017-07-18T20:29:05.863Z,21.48
2017-07-18T20:31:33.640Z,21.57
2017-07-18T20:34:03.470Z,21.39
2017-07-18T20:36:31.620Z,21.36
2017-07-18T20:38:59.349Z,21.32
2017-07-18T20:41:29.454Z,21.35
2017-07-18T20:43:57.371Z,21.34
2017-07-18T20:46:25.802Z,21.18
2017-07-18T20:48:53.515Z,21.02
2017-07-18T20:51:21.446Z,21.06
2017-07-18T20:53:49.448Z,21.04
2017-07-18T20:56:19.331Z,21.02
2017-07-18T20:58:47.612Z,20.98
2017-07-18T21:01:15.444Z,20.89
2017-07-18T21:03:44.121Z,20.85
2017-07-18T21:06:11.845Z,20.87
2017-07-18T21:08:39.511Z,20.91
2017-07-18T21:11:07.209Z,20.88
2017-07-18T21:13:34.844Z,20.85
2017-07-18T21:16:25.940Z,20.85
2017-07-18T21:18:53.691Z,20.76
2017-07-18T21:31:23.569Z,20.55
2017-07-18T21:33:54.267Z,20.55
2017-07-18T21:36:30.979Z,20.53
2017-07-18T21:38:59.477Z,20.57
2017-07-18T21:41:27.228Z,20.46
2017-07-18T21:43:59.548Z,20.35
2017-07-18T21:46:27.274Z,20.36
2017-07-18T21:48:55.272Z,20.37
2017-07-18T21:53:59.687Z,20.25
2017-07-18T22:01:46.469Z,20.12
2017-07-18T22:04:21.649Z,20.08
2017-07-18T22:06:50.203Z,20.12
2017-07-18T22:09:19.522Z,20.05
2017-07-18T22:11:49.067Z,20.05
2017-07-18T22:14:16.747Z,20.17
2017-07-18T22:16:45.095Z,20.20
2017-07-18T22:19:12.807Z,20.34
2017-07-18T22:21:40.537Z,20.46
2017-07-18T22:24:08.320Z,20.63
2017-07-18T22:26:36.035Z,20.61
2017-07-18T22:29:04.503Z,20.68
2017-07-18T22:31:32.262Z,20.67
2017-07-18T22:33:59.885Z,20.61
2017-07-18T22:36:27.648Z,20.70
2017-07-18T22:38:55.304Z,20.61
2017-07-18T22:41:24.306Z,20.49
2017-07-18T22:43:51.928Z,20.54
2017-07-18T22:46:19.548Z,20.38
2017-07-18T22:48:48.529Z,20.40
2017-07-18T22:51:17.296Z,20.42
2017-07-18T22:53:44.979Z,20.34
2017-07-18T22:56:12.611Z,20.13
2017-07-18T22:58:41.406Z,20.09
2017-07-18T23:01:09.499Z,20.10
2017-07-18T23:03:37.363Z,19.81
2017-07-18T23:06:05.685Z,20.11
2017-07-18T23:08:33.345Z,20.22
2017-07-18T23:11:00.998Z,20.23
2017-07-18T23:13:28.650Z,20.24
2017-07-18T23:15:56.410Z,20.38
2017-07-18T23:18:24.113Z,20.37
2017-07-18T23:20:53.940Z,20.36
2017-07-18T23:23:21.710Z,20.30
2017-07-18T23:25:49.391Z,20.33
2017-07-18T23:28:17.070Z,20.40
2017-07-18T23:30:44.789Z,20.41
2017-07-18T23:33:12.502Z,20.41
2017-07-18T23:35:40.248Z,20.33
2017-07-18T23:38:07.980Z,20.49
2017-07-18T23:40:35.722Z,20.49
2017-07-18T23:43:04.199Z,20.29
2017-07-18T23:45:31.912Z,20.32
2017-07-18T23:47:59.784Z,20.29
2017-07-18T23:50:28.471Z,20.33
2017-07-18T23:52:57.175Z,20.35
2017-07-18T23:55:26.688Z,20.22
2017-07-18T23:57:54.427Z,20.34
